Tintah, Minnesota
Current Conditions -  °F | °C
As of 8:56 AM on Tuesday 21 Oct 2014 (Local Time) from KY63 Reporting Station
Clear Clear  
Wind Chill: 37°   Ceiling: Unl
Heat Index: 44°   Visibility: 10mi
Dew Point: 38°   Wind: 14mph
Humidity: 81%   Direction: 140°SE
Pressure: 30.08"   Gusts: NA
Location:  46.01°N, 96.32°W
Report Text: KY63 211356Z AUTO 14012KT 10SM CLR 07/03 A3008 RMK AO2 T00650034
Loading
Personal Weather Stations






























Interactive Weather Map
Tropical Storm Tracking
New forecast layout! Learn more

10-Day Weather Forecast

Advertisements
Track Severe Weather on mobile